sensor_id;sensor_type;location;lat;lon;timestamp;pressure;altitude;pressure_sealevel;temperature;humidity
33151;BME280;19508;42.578;23.416;2024-01-27T00:01:33;94140.50;;;0.20;74.38
33151;BME280;19508;42.578;23.416;2024-01-27T00:03:59;94144.88;;;0.13;74.97
33151;BME280;19508;42.578;23.416;2024-01-27T00:06:24;94123.22;;;0.10;74.98
33151;BME280;19508;42.578;23.416;2024-01-27T00:08:50;94122.47;;;0.16;75.15
33151;BME280;19508;42.578;23.416;2024-01-27T00:11:15;94123.50;;;0.00;76.36
33151;BME280;19508;42.578;23.416;2024-01-27T00:13:41;94115.00;;;0.19;76.39
33151;BME280;19508;42.578;23.416;2024-01-27T00:16:06;94131.16;;;0.24;75.89
33151;BME280;19508;42.578;23.416;2024-01-27T00:18:32;94113.47;;;0.10;75.57
33151;BME280;19508;42.578;23.416;2024-01-27T00:20:57;94116.03;;;0.18;75.60
33151;BME280;19508;42.578;23.416;2024-01-27T00:23:22;94124.13;;;0.17;76.40
33151;BME280;19508;42.578;23.416;2024-01-27T00:25:48;94116.09;;;0.10;77.08
33151;BME280;19508;42.578;23.416;2024-01-27T00:28:13;94110.34;;;0.21;75.65
33151;BME280;19508;42.578;23.416;2024-01-27T00:30:39;94115.75;;;0.28;75.36
33151;BME280;19508;42.578;23.416;2024-01-27T00:33:04;94110.16;;;0.38;74.81
33151;BME280;19508;42.578;23.416;2024-01-27T00:35:30;94101.00;;;0.25;74.28
33151;BME280;19508;42.578;23.416;2024-01-27T00:37:55;94121.84;;;0.28;73.79
33151;BME280;19508;42.578;23.416;2024-01-27T00:40:22;94115.94;;;0.26;74.11
33151;BME280;19508;42.578;23.416;2024-01-27T00:42:48;94122.00;;;0.42;74.00
33151;BME280;19508;42.578;23.416;2024-01-27T00:45:13;94125.59;;;0.34;74.37
33151;BME280;19508;42.578;23.416;2024-01-27T00:47:38;94106.69;;;0.22;75.31
33151;BME280;19508;42.578;23.416;2024-01-27T00:50:04;94122.41;;;0.39;74.91
33151;BME280;19508;42.578;23.416;2024-01-27T00:52:31;94124.31;;;0.30;74.85
33151;BME280;19508;42.578;23.416;2024-01-27T00:54:56;94126.44;;;0.35;74.86
33151;BME280;19508;42.578;23.416;2024-01-27T00:57:22;94120.22;;;0.27;74.53
33151;BME280;19508;42.578;23.416;2024-01-27T00:59:47;94123.13;;;0.33;74.70
33151;BME280;19508;42.578;23.416;2024-01-27T01:02:12;94131.44;;;0.44;74.43
33151;BME280;19508;42.578;23.416;2024-01-27T01:04:38;94103.41;;;0.20;75.13
33151;BME280;19508;42.578;23.416;2024-01-27T01:07:03;94117.81;;;0.33;75.31
33151;BME280;19508;42.578;23.416;2024-01-27T01:09:28;94122.94;;;0.49;74.54
33151;BME280;19508;42.578;23.416;2024-01-27T01:11:54;94097.91;;;0.37;74.53
33151;BME280;19508;42.578;23.416;2024-01-27T01:14:19;94089.41;;;0.41;74.63
33151;BME280;19508;42.578;23.416;2024-01-27T01:16:45;94097.19;;;0.43;74.57
33151;BME280;19508;42.578;23.416;2024-01-27T01:19:10;94106.59;;;0.31;74.94
33151;BME280;19508;42.578;23.416;2024-01-27T01:21:36;94099.94;;;0.35;74.11
33151;BME280;19508;42.578;23.416;2024-01-27T01:24:01;94099.75;;;0.21;75.28
33151;BME280;19508;42.578;23.416;2024-01-27T01:26:27;94098.03;;;0.28;74.75
33151;BME280;19508;42.578;23.416;2024-01-27T01:28:55;94094.38;;;0.00;76.11
33151;BME280;19508;42.578;23.416;2024-01-27T01:31:20;94107.97;;;0.26;75.74
33151;BME280;19508;42.578;23.416;2024-01-27T01:33:46;94105.34;;;0.26;75.45
33151;BME280;19508;42.578;23.416;2024-01-27T01:36:11;94099.94;;;0.20;75.61
33151;BME280;19508;42.578;23.416;2024-01-27T01:38:38;94091.53;;;0.16;75.83
33151;BME280;19508;42.578;23.416;2024-01-27T01:41:03;94095.94;;;0.09;76.33
33151;BME280;19508;42.578;23.416;2024-01-27T01:43:29;94102.41;;;0.21;76.49
33151;BME280;19508;42.578;23.416;2024-01-27T01:45:54;94094.38;;;0.15;76.81
33151;BME280;19508;42.578;23.416;2024-01-27T01:48:20;94082.13;;;0.14;76.83
33151;BME280;19508;42.578;23.416;2024-01-27T01:50:46;94078.75;;;0.35;75.97
33151;BME280;19508;42.578;23.416;2024-01-27T01:53:12;94092.25;;;0.40;75.64
33151;BME280;19508;42.578;23.416;2024-01-27T01:55:38;94089.41;;;0.41;75.58
33151;BME280;19508;42.578;23.416;2024-01-27T01:58:04;94079.81;;;0.25;76.21
33151;BME280;19508;42.578;23.416;2024-01-27T02:00:29;94079.91;;;0.32;76.04
33151;BME280;19508;42.578;23.416;2024-01-27T02:02:55;94083.94;;;0.43;75.85
33151;BME280;19508;42.578;23.416;2024-01-27T02:05:20;94082.28;;;0.42;76.36
33151;BME280;19508;42.578;23.416;2024-01-27T02:07:46;94073.78;;;0.46;76.22
33151;BME280;19508;42.578;23.416;2024-01-27T02:10:16;94094.41;;;0.51;76.97
33151;BME280;19508;42.578;23.416;2024-01-27T02:12:42;94084.88;;;0.71;76.03
33151;BME280;19508;42.578;23.416;2024-01-27T02:15:17;94080.13;;;0.67;75.88
33151;BME280;19508;42.578;23.416;2024-01-27T02:17:42;94061.63;;;0.88;75.18
33151;BME280;19508;42.578;23.416;2024-01-27T02:20:08;94067.22;;;1.00;74.52
33151;BME280;19508;42.578;23.416;2024-01-27T02:22:34;94061.69;;;1.16;74.27
33151;BME280;19508;42.578;23.416;2024-01-27T02:25:00;94032.22;;;1.11;73.99
33151;BME280;19508;42.578;23.416;2024-01-27T02:27:26;94034.81;;;1.26;74.11
33151;BME280;19508;42.578;23.416;2024-01-27T02:29:52;94035.63;;;1.26;72.73
33151;BME280;19508;42.578;23.416;2024-01-27T02:32:17;94039.28;;;1.47;72.95
33151;BME280;19508;42.578;23.416;2024-01-27T02:34:42;94038.75;;;1.30;72.85
33151;BME280;19508;42.578;23.416;2024-01-27T02:37:09;94049.38;;;1.58;72.75
33151;BME280;19508;42.578;23.416;2024-01-27T02:39:34;94040.00;;;1.62;72.67
33151;BME280;19508;42.578;23.416;2024-01-27T02:42:00;94042.75;;;1.75;71.61
33151;BME280;19508;42.578;23.416;2024-01-27T02:44:25;94032.84;;;1.90;70.94
33151;BME280;19508;42.578;23.416;2024-01-27T02:46:51;94053.63;;;1.80;71.26
33151;BME280;19508;42.578;23.416;2024-01-27T02:49:16;94058.22;;;2.00;70.68
33151;BME280;19508;42.578;23.416;2024-01-27T02:51:42;94042.66;;;1.96;69.76
33151;BME280;19508;42.578;23.416;2024-01-27T02:54:07;94036.22;;;2.06;69.62
33151;BME280;19508;42.578;23.416;2024-01-27T02:56:32;94029.56;;;1.88;70.36
33151;BME280;19508;42.578;23.416;2024-01-27T02:58:58;94037.66;;;2.08;69.68
33151;BME280;19508;42.578;23.416;2024-01-27T03:01:23;94039.66;;;2.00;71.06
33151;BME280;19508;42.578;23.416;2024-01-27T03:03:49;94042.34;;;2.06;69.98
33151;BME280;19508;42.578;23.416;2024-01-27T03:06:15;94040.81;;;2.25;69.12
33151;BME280;19508;42.578;23.416;2024-01-27T03:08:40;94029.78;;;2.28;69.38
33151;BME280;19508;42.578;23.416;2024-01-27T03:11:06;94039.41;;;2.36;69.45
33151;BME280;19508;42.578;23.416;2024-01-27T03:13:31;94037.13;;;2.26;69.85
33151;BME280;19508;42.578;23.416;2024-01-27T03:15:56;94040.34;;;2.15;70.48
33151;BME280;19508;42.578;23.416;2024-01-27T03:18:22;94031.41;;;2.29;69.77
33151;BME280;19508;42.578;23.416;2024-01-27T03:20:49;94037.41;;;2.44;68.51
33151;BME280;19508;42.578;23.416;2024-01-27T03:23:15;94036.78;;;2.42;68.63
33151;BME280;19508;42.578;23.416;2024-01-27T03:25:40;94039.47;;;2.55;68.38
33151;BME280;19508;42.578;23.416;2024-01-27T03:28:05;94041.28;;;2.42;68.51
33151;BME280;19508;42.578;23.416;2024-01-27T03:30:31;94031.47;;;2.42;68.71
33151;BME280;19508;42.578;23.416;2024-01-27T03:32:56;94047.09;;;2.59;68.04
33151;BME280;19508;42.578;23.416;2024-01-27T03:35:22;94052.03;;;2.75;68.12
33151;BME280;19508;42.578;23.416;2024-01-27T03:37:52;94050.00;;;2.77;68.41
33151;BME280;19508;42.578;23.416;2024-01-27T03:40:17;94042.03;;;2.77;68.28
33151;BME280;19508;42.578;23.416;2024-01-27T03:42:43;94053.59;;;2.56;69.06
33151;BME280;19508;42.578;23.416;2024-01-27T03:45:08;94065.16;;;2.83;68.68
33151;BME280;19508;42.578;23.416;2024-01-27T03:47:34;94047.94;;;2.66;69.21
33151;BME280;19508;42.578;23.416;2024-01-27T03:49:59;94037.34;;;2.86;68.44
33151;BME280;19508;42.578;23.416;2024-01-27T03:52:25;94035.13;;;3.02;68.32
33151;BME280;19508;42.578;23.416;2024-01-27T03:54:50;94037.59;;;3.10;68.66
33151;BME280;19508;42.578;23.416;2024-01-27T03:57:16;94038.44;;;3.18;68.27
33151;BME280;19508;42.578;23.416;2024-01-27T03:59:41;94030.44;;;3.18;68.69
33151;BME280;19508;42.578;23.416;2024-01-27T04:02:07;94023.03;;;2.93;68.14
33151;BME280;19508;42.578;23.416;2024-01-27T04:04:32;94036.75;;;2.97;68.31
33151;BME280;19508;42.578;23.416;2024-01-27T04:06:58;94031.06;;;3.20;66.99
33151;BME280;19508;42.578;23.416;2024-01-27T04:09:23;94021.41;;;3.05;66.24
33151;BME280;19508;42.578;23.416;2024-01-27T04:11:49;94031.25;;;3.11;66.48
33151;BME280;19508;42.578;23.416;2024-01-27T04:14:14;94036.19;;;3.28;66.12
33151;BME280;19508;42.578;23.416;2024-01-27T04:16:40;94038.41;;;3.24;66.60
33151;BME280;19508;42.578;23.416;2024-01-27T04:19:05;94034.94;;;3.24;66.74
33151;BME280;19508;42.578;23.416;2024-01-27T04:21:31;94043.16;;;3.35;66.65
33151;BME280;19508;42.578;23.416;2024-01-27T04:23:56;94048.25;;;3.24;67.98
33151;BME280;19508;42.578;23.416;2024-01-27T04:26:22;94037.00;;;3.22;69.45
33151;BME280;19508;42.578;23.416;2024-01-27T04:28:47;94025.31;;;3.23;70.41
33151;BME280;19508;42.578;23.416;2024-01-27T04:31:13;94026.75;;;3.32;70.29
33151;BME280;19508;42.578;23.416;2024-01-27T04:33:38;94024.91;;;3.39;70.46
33151;BME280;19508;42.578;23.416;2024-01-27T04:36:04;94022.88;;;3.21;72.23
33151;BME280;19508;42.578;23.416;2024-01-27T04:38:32;94027.97;;;3.23;72.95
33151;BME280;19508;42.578;23.416;2024-01-27T04:40:57;94016.13;;;3.19;74.37
33151;BME280;19508;42.578;23.416;2024-01-27T04:43:22;94028.75;;;2.90;77.44
33151;BME280;19508;42.578;23.416;2024-01-27T04:45:48;94021.22;;;3.14;77.31
33151;BME280;19508;42.578;23.416;2024-01-27T04:48:16;94027.19;;;3.29;76.94
33151;BME280;19508;42.578;23.416;2024-01-27T04:50:42;94023.28;;;3.38;76.96
33151;BME280;19508;42.578;23.416;2024-01-27T04:53:08;94023.91;;;3.40;76.87
33151;BME280;19508;42.578;23.416;2024-01-27T04:55:33;94024.28;;;3.50;76.59
33151;BME280;19508;42.578;23.416;2024-01-27T04:57:59;94019.78;;;3.57;76.95
33151;BME280;19508;42.578;23.416;2024-01-27T05:00:25;94026.56;;;3.60;76.72
33151;BME280;19508;42.578;23.416;2024-01-27T05:02:52;94009.34;;;3.49;77.14
33151;BME280;19508;42.578;23.416;2024-01-27T05:05:18;94025.13;;;3.57;77.20
33151;BME280;19508;42.578;23.416;2024-01-27T05:07:43;94032.09;;;3.52;78.24
33151;BME280;19508;42.578;23.416;2024-01-27T05:10:11;94025.97;;;3.51;78.52
33151;BME280;19508;42.578;23.416;2024-01-27T05:12:37;94040.50;;;3.55;78.50
33151;BME280;19508;42.578;23.416;2024-01-27T05:15:03;94038.63;;;3.49;78.85
33151;BME280;19508;42.578;23.416;2024-01-27T05:17:29;94037.84;;;3.62;78.96
33151;BME280;19508;42.578;23.416;2024-01-27T05:19:54;94037.84;;;3.68;78.47
33151;BME280;19508;42.578;23.416;2024-01-27T05:22:20;94043.16;;;3.68;78.68
33151;BME280;19508;42.578;23.416;2024-01-27T05:24:45;94030.88;;;3.67;78.24
33151;BME280;19508;42.578;23.416;2024-01-27T05:27:10;94040.72;;;3.60;78.83
33151;BME280;19508;42.578;23.416;2024-01-27T05:29:39;94033.72;;;3.39;80.89
33151;BME280;19508;42.578;23.416;2024-01-27T05:32:04;94039.03;;;3.33;81.62
33151;BME280;19508;42.578;23.416;2024-01-27T05:34:30;94050.53;;;3.27;82.69
33151;BME280;19508;42.578;23.416;2024-01-27T05:36:55;94041.50;;;3.21;83.74
33151;BME280;19508;42.578;23.416;2024-01-27T05:39:21;94039.66;;;3.08;85.11
33151;BME280;19508;42.578;23.416;2024-01-27T05:41:46;94038.44;;;3.18;85.29
33151;BME280;19508;42.578;23.416;2024-01-27T05:44:11;94042.31;;;3.22;85.51
33151;BME280;19508;42.578;23.416;2024-01-27T05:46:37;94040.25;;;3.10;86.31
33151;BME280;19508;42.578;23.416;2024-01-27T05:49:02;94028.41;;;3.20;86.25
33151;BME280;19508;42.578;23.416;2024-01-27T05:51:29;94024.72;;;3.21;86.36
33151;BME280;19508;42.578;23.416;2024-01-27T05:53:55;94019.59;;;3.13;86.97
33151;BME280;19508;42.578;23.416;2024-01-27T05:56:21;94039.03;;;3.13;88.09
33151;BME280;19508;42.578;23.416;2024-01-27T05:58:47;94040.28;;;3.17;88.29
33151;BME280;19508;42.578;23.416;2024-01-27T06:01:12;94034.94;;;3.10;88.00
33151;BME280;19508;42.578;23.416;2024-01-27T06:03:41;94043.53;;;3.13;88.22
33151;BME280;19508;42.578;23.416;2024-01-27T06:06:06;94052.75;;;3.10;88.85
33151;BME280;19508;42.578;23.416;2024-01-27T06:08:32;94043.75;;;3.24;88.32
33151;BME280;19508;42.578;23.416;2024-01-27T06:10:57;94052.56;;;3.25;88.38
33151;BME280;19508;42.578;23.416;2024-01-27T06:13:23;94055.44;;;3.30;88.27
33151;BME280;19508;42.578;23.416;2024-01-27T06:15:48;94052.13;;;3.01;89.99
33151;BME280;19508;42.578;23.416;2024-01-27T06:18:13;94059.09;;;3.09;89.59
33151;BME280;19508;42.578;23.416;2024-01-27T06:20:39;94066.44;;;3.07;90.10
33151;BME280;19508;42.578;23.416;2024-01-27T06:23:05;94076.31;;;3.26;89.99
33151;BME280;19508;42.578;23.416;2024-01-27T06:25:32;94076.91;;;3.22;90.40
33151;BME280;19508;42.578;23.416;2024-01-27T06:27:57;94085.31;;;3.32;90.67
33151;BME280;19508;42.578;23.416;2024-01-27T06:30:22;94093.91;;;3.21;91.62
33151;BME280;19508;42.578;23.416;2024-01-27T06:32:48;94090.22;;;3.22;92.29
33151;BME280;19508;42.578;23.416;2024-01-27T06:35:14;94088.16;;;3.17;92.66
33151;BME280;19508;42.578;23.416;2024-01-27T06:37:39;94089.81;;;3.25;92.46
33151;BME280;19508;42.578;23.416;2024-01-27T06:40:05;94089.84;;;3.38;93.30
33151;BME280;19508;42.578;23.416;2024-01-27T06:42:31;94077.56;;;3.37;92.68
33151;BME280;19508;42.578;23.416;2024-01-27T06:44:56;94087.38;;;3.36;92.33
33151;BME280;19508;42.578;23.416;2024-01-27T06:47:22;94079.56;;;3.22;92.65
33151;BME280;19508;42.578;23.416;2024-01-27T06:49:47;94100.06;;;3.41;92.84
33151;BME280;19508;42.578;23.416;2024-01-27T06:52:12;94107.00;;;3.22;94.22
33151;BME280;19508;42.578;23.416;2024-01-27T06:54:38;94083.06;;;3.49;93.52
33151;BME280;19508;42.578;23.416;2024-01-27T06:57:20;94107.47;;;3.52;94.49
33151;BME280;19508;42.578;23.416;2024-01-27T06:59:51;94120.56;;;3.54;94.97
33151;BME280;19508;42.578;23.416;2024-01-27T07:02:24;94101.31;;;4.11;90.53
33151;BME280;19508;42.578;23.416;2024-01-27T07:04:51;94087.63;;;4.72;86.59
33151;BME280;19508;42.578;23.416;2024-01-27T07:07:17;94100.66;;;4.94;85.91
33151;BME280;19508;42.578;23.416;2024-01-27T07:09:42;94076.34;;;5.15;83.46
33151;BME280;19508;42.578;23.416;2024-01-27T07:12:08;94079.34;;;5.32;80.85
33151;BME280;19508;42.578;23.416;2024-01-27T07:14:34;94086.78;;;5.55;79.66
33151;BME280;19508;42.578;23.416;2024-01-27T07:17:00;94073.75;;;5.97;79.32
33151;BME280;19508;42.578;23.416;2024-01-27T07:19:26;94064.91;;;5.96;77.46
33151;BME280;19508;42.578;23.416;2024-01-27T07:21:51;94060.56;;;6.02;76.15
33151;BME280;19508;42.578;23.416;2024-01-27T07:24:16;94062.66;;;6.18;75.06
33151;BME280;19508;42.578;23.416;2024-01-27T07:26:42;94056.91;;;5.96;72.79
33151;BME280;19508;42.578;23.416;2024-01-27T07:29:07;94049.09;;;6.38;71.51
33151;BME280;19508;42.578;23.416;2024-01-27T07:31:33;94056.31;;;6.56;69.88
33151;BME280;19508;42.578;23.416;2024-01-27T07:33:58;94056.00;;;6.45;68.56
33151;BME280;19508;42.578;23.416;2024-01-27T07:36:24;94082.69;;;6.52;67.90
33151;BME280;19508;42.578;23.416;2024-01-27T07:38:51;94091.59;;;6.64;68.22
33151;BME280;19508;42.578;23.416;2024-01-27T07:41:33;94117.66;;;6.75;67.96
33151;BME280;19508;42.578;23.416;2024-01-27T07:44:09;94137.84;;;6.03;69.03
33151;BME280;19508;42.578;23.416;2024-01-27T07:46:36;94141.53;;;6.09;68.86
33151;BME280;19508;42.578;23.416;2024-01-27T07:49:02;94151.16;;;5.78;69.18
33151;BME280;19508;42.578;23.416;2024-01-27T07:51:28;94164.50;;;5.47;69.26
33151;BME280;19508;42.578;23.416;2024-01-27T07:53:53;94135.28;;;5.52;70.42
33151;BME280;19508;42.578;23.416;2024-01-27T07:56:19;94153.44;;;5.36;70.55
33151;BME280;19508;42.578;23.416;2024-01-27T07:58:44;94148.91;;;5.44;70.67
33151;BME280;19508;42.578;23.416;2024-01-27T08:01:10;94150.03;;;5.61;70.68
33151;BME280;19508;42.578;23.416;2024-01-27T08:03:35;94167.84;;;5.35;71.77
33151;BME280;19508;42.578;23.416;2024-01-27T08:06:04;94167.34;;;5.14;70.84
33151;BME280;19508;42.578;23.416;2024-01-27T08:08:30;94162.75;;;5.21;70.03
33151;BME280;19508;42.578;23.416;2024-01-27T08:10:55;94165.28;;;5.16;69.96
33151;BME280;19508;42.578;23.416;2024-01-27T08:13:21;94132.19;;;5.17;70.24
33151;BME280;19508;42.578;23.416;2024-01-27T08:15:46;94151.84;;;5.29;70.19
33151;BME280;19508;42.578;23.416;2024-01-27T08:18:12;94147.88;;;5.45;70.22
33151;BME280;19508;42.578;23.416;2024-01-27T08:20:37;94138.25;;;5.37;69.48
33151;BME280;19508;42.578;23.416;2024-01-27T08:23:03;94140.19;;;5.55;68.28
33151;BME280;19508;42.578;23.416;2024-01-27T08:25:28;94148.75;;;5.70;67.69
33151;BME280;19508;42.578;23.416;2024-01-27T08:27:53;94159.88;;;5.67;64.90
33151;BME280;19508;42.578;23.416;2024-01-27T08:30:19;94134.63;;;5.94;63.79
33151;BME280;19508;42.578;23.416;2024-01-27T08:32:44;94112.75;;;6.04;61.16
33151;BME280;19508;42.578;23.416;2024-01-27T08:35:10;94137.75;;;6.16;59.84
33151;BME280;19508;42.578;23.416;2024-01-27T08:37:35;94150.34;;;6.34;58.98
33151;BME280;19508;42.578;23.416;2024-01-27T08:40:05;94160.41;;;6.57;57.58
33151;BME280;19508;42.578;23.416;2024-01-27T08:42:31;94154.69;;;6.54;57.93
33151;BME280;19508;42.578;23.416;2024-01-27T08:44:56;94172.28;;;6.68;57.30
33151;BME280;19508;42.578;23.416;2024-01-27T08:47:21;94138.47;;;6.48;57.70
33151;BME280;19508;42.578;23.416;2024-01-27T08:49:47;94147.56;;;6.66;57.22
33151;BME280;19508;42.578;23.416;2024-01-27T08:52:12;94180.41;;;6.98;56.83
33151;BME280;19508;42.578;23.416;2024-01-27T08:54:38;94158.66;;;7.43;55.61
33151;BME280;19508;42.578;23.416;2024-01-27T08:57:03;94169.47;;;7.36;55.62
33151;BME280;19508;42.578;23.416;2024-01-27T08:59:30;94173.47;;;7.45;56.05
33151;BME280;19508;42.578;23.416;2024-01-27T09:01:55;94175.63;;;7.37;55.67
33151;BME280;19508;42.578;23.416;2024-01-27T09:04:20;94171.84;;;7.44;55.61
33151;BME280;19508;42.578;23.416;2024-01-27T09:06:46;94165.38;;;7.93;53.24
33151;BME280;19508;42.578;23.416;2024-01-27T09:09:11;94162.84;;;7.69;53.44
33151;BME280;19508;42.578;23.416;2024-01-27T09:11:37;94160.34;;;7.55;52.73
33151;BME280;19508;42.578;23.416;2024-01-27T09:14:03;94167.22;;;7.81;53.96
33151;BME280;19508;42.578;23.416;2024-01-27T09:16:30;94173.59;;;7.50;54.44
33151;BME280;19508;42.578;23.416;2024-01-27T09:18:55;94173.03;;;7.30;52.75
33151;BME280;19508;42.578;23.416;2024-01-27T09:21:21;94187.44;;;6.74;54.30
33151;BME280;19508;42.578;23.416;2024-01-27T09:23:53;94202.84;;;6.54;56.41
33151;BME280;19508;42.578;23.416;2024-01-27T09:26:19;94196.34;;;6.68;56.31
33151;BME280;19508;42.578;23.416;2024-01-27T09:28:44;94199.47;;;6.65;57.08
33151;BME280;19508;42.578;23.416;2024-01-27T09:31:12;94189.63;;;7.02;56.83
33151;BME280;19508;42.578;23.416;2024-01-27T09:33:37;94189.47;;;7.15;56.23
33151;BME280;19508;42.578;23.416;2024-01-27T09:36:03;94200.41;;;7.14;57.59
33151;BME280;19508;42.578;23.416;2024-01-27T09:38:29;94210.66;;;6.80;59.25
33151;BME280;19508;42.578;23.416;2024-01-27T09:40:55;94183.03;;;6.61;58.49
33151;BME280;19508;42.578;23.416;2024-01-27T09:43:21;94182.72;;;6.94;58.34
33151;BME280;19508;42.578;23.416;2024-01-27T09:45:46;94181.97;;;6.87;58.12
33151;BME280;19508;42.578;23.416;2024-01-27T09:48:12;94153.69;;;6.91;56.80
33151;BME280;19508;42.578;23.416;2024-01-27T09:50:41;94200.06;;;6.67;56.89
33151;BME280;19508;42.578;23.416;2024-01-27T09:53:06;94192.41;;;6.70;57.37
33151;BME280;19508;42.578;23.416;2024-01-27T09:55:34;94197.19;;;6.87;57.38
33151;BME280;19508;42.578;23.416;2024-01-27T09:58:00;94184.19;;;6.90;57.76
33151;BME280;19508;42.578;23.416;2024-01-27T10:00:27;94190.28;;;6.79;58.38
33151;BME280;19508;42.578;23.416;2024-01-27T10:02:54;94205.03;;;6.63;58.83
33151;BME280;19508;42.578;23.416;2024-01-27T10:05:20;94200.06;;;6.67;59.47
33151;BME280;19508;42.578;23.416;2024-01-27T10:07:45;94203.41;;;6.37;60.76
33151;BME280;19508;42.578;23.416;2024-01-27T10:10:11;94224.06;;;6.73;59.38
33151;BME280;19508;42.578;23.416;2024-01-27T10:12:40;94208.16;;;6.35;60.64
33151;BME280;19508;42.578;23.416;2024-01-27T10:15:22;94206.75;;;6.33;61.05
33151;BME280;19508;42.578;23.416;2024-01-27T10:17:47;94203.53;;;6.24;61.26
33151;BME280;19508;42.578;23.416;2024-01-27T10:20:13;94196.88;;;6.58;60.60
33151;BME280;19508;42.578;23.416;2024-01-27T10:22:41;94188.56;;;6.41;61.07
33151;BME280;19508;42.578;23.416;2024-01-27T10:25:08;94211.53;;;5.92;62.32
33151;BME280;19508;42.578;23.416;2024-01-27T10:27:34;94182.19;;;6.42;61.31
33151;BME280;19508;42.578;23.416;2024-01-27T10:29:59;94164.41;;;6.23;62.17
33151;BME280;19508;42.578;23.416;2024-01-27T10:32:25;94186.16;;;6.58;60.65
33151;BME280;19508;42.578;23.416;2024-01-27T10:35:07;94190.00;;;6.87;60.75
33151;BME280;19508;42.578;23.416;2024-01-27T10:37:37;94195.75;;;6.66;60.43
33151;BME280;19508;42.578;23.416;2024-01-27T10:40:04;94197.53;;;6.72;60.54
33151;BME280;19508;42.578;23.416;2024-01-27T10:42:30;94216.81;;;6.56;61.43
33151;BME280;19508;42.578;23.416;2024-01-27T10:44:59;94221.84;;;6.45;60.95
33151;BME280;19508;42.578;23.416;2024-01-27T10:47:28;94202.25;;;6.52;62.32
33151;BME280;19508;42.578;23.416;2024-01-27T10:49:58;94201.50;;;6.44;61.96
33151;BME280;19508;42.578;23.416;2024-01-27T10:52:27;94214.91;;;6.38;62.23
33151;BME280;19508;42.578;23.416;2024-01-27T10:55:02;94204.97;;;6.20;62.69
33151;BME280;19508;42.578;23.416;2024-01-27T10:57:30;94208.13;;;6.42;62.08
33151;BME280;19508;42.578;23.416;2024-01-27T10:59:57;94204.63;;;6.41;61.05
33151;BME280;19508;42.578;23.416;2024-01-27T11:02:23;94212.69;;;6.60;60.92
33151;BME280;19508;42.578;23.416;2024-01-27T11:04:50;94226.03;;;6.41;61.73
33151;BME280;19508;42.578;23.416;2024-01-27T11:07:19;94218.00;;;6.41;60.63
33151;BME280;19508;42.578;23.416;2024-01-27T11:09:46;94247.13;;;6.25;62.31
33151;BME280;19508;42.578;23.416;2024-01-27T11:12:13;94249.19;;;6.47;62.16
33151;BME280;19508;42.578;23.416;2024-01-27T11:14:42;94244.94;;;6.65;60.92
33151;BME280;19508;42.578;23.416;2024-01-27T11:17:07;94239.91;;;6.75;60.74
33151;BME280;19508;42.578;23.416;2024-01-27T11:19:33;94257.13;;;6.61;61.11
33151;BME280;19508;42.578;23.416;2024-01-27T11:22:03;94257.56;;;6.58;61.27
33151;BME280;19508;42.578;23.416;2024-01-27T11:24:29;94251.50;;;6.69;61.25
33151;BME280;19508;42.578;23.416;2024-01-27T11:27:04;94258.81;;;6.55;62.03
33151;BME280;19508;42.578;23.416;2024-01-27T11:29:31;94265.88;;;6.18;62.85
33151;BME280;19508;42.578;23.416;2024-01-27T11:32:00;94271.03;;;6.13;63.49
33151;BME280;19508;42.578;23.416;2024-01-27T11:34:27;94267.59;;;6.37;62.54
33151;BME280;19508;42.578;23.416;2024-01-27T11:36:53;94259.63;;;5.99;64.24
33151;BME280;19508;42.578;23.416;2024-01-27T11:39:29;94264.47;;;6.15;63.38
33151;BME280;19508;42.578;23.416;2024-01-27T11:42:12;94268.16;;;6.14;63.57
33151;BME280;19508;42.578;23.416;2024-01-27T11:44:41;94271.00;;;5.81;65.00
33151;BME280;19508;42.578;23.416;2024-01-27T11:47:18;94269.75;;;5.90;64.18
33151;BME280;19508;42.578;23.416;2024-01-27T11:49:50;94283.94;;;5.91;64.35
33151;BME280;19508;42.578;23.416;2024-01-27T11:52:17;94268.16;;;5.70;65.01
33151;BME280;19508;42.578;23.416;2024-01-27T11:54:43;94267.28;;;5.82;63.99
33151;BME280;19508;42.578;23.416;2024-01-27T11:57:09;94262.69;;;6.03;63.81
33151;BME280;19508;42.578;23.416;2024-01-27T11:59:34;94272.53;;;6.09;62.97
33151;BME280;19508;42.578;23.416;2024-01-27T12:02:01;94271.47;;;6.10;63.22
33151;BME280;19508;42.578;23.416;2024-01-27T12:04:27;94282.69;;;5.93;63.16
33151;BME280;19508;42.578;23.416;2024-01-27T12:06:53;94262.56;;;5.91;63.37
33151;BME280;19508;42.578;23.416;2024-01-27T12:09:18;94266.03;;;6.23;62.62
33151;BME280;19508;42.578;23.416;2024-01-27T12:11:44;94277.13;;;6.27;62.38
33151;BME280;19508;42.578;23.416;2024-01-27T12:14:11;94287.69;;;6.46;62.24
33151;BME280;19508;42.578;23.416;2024-01-27T12:16:37;94297.97;;;6.49;60.60
33151;BME280;19508;42.578;23.416;2024-01-27T12:19:03;94294.53;;;6.42;60.02
33151;BME280;19508;42.578;23.416;2024-01-27T12:21:28;94296.16;;;6.43;60.71
33151;BME280;19508;42.578;23.416;2024-01-27T12:23:57;94300.13;;;6.34;60.42
33151;BME280;19508;42.578;23.416;2024-01-27T12:26:29;94305.47;;;6.34;60.43
33151;BME280;19508;42.578;23.416;2024-01-27T12:28:55;94298.81;;;6.12;59.41
33151;BME280;19508;42.578;23.416;2024-01-27T12:31:22;94292.75;;;5.91;59.17
33151;BME280;19508;42.578;23.416;2024-01-27T12:33:54;94303.00;;;6.01;58.22
33151;BME280;19508;42.578;23.416;2024-01-27T12:36:21;94293.34;;;6.88;55.06
33151;BME280;19508;42.578;23.416;2024-01-27T12:38:57;94290.38;;;8.25;51.93
33151;BME280;19508;42.578;23.416;2024-01-27T12:41:27;94264.91;;;9.22;50.43
33151;BME280;19508;42.578;23.416;2024-01-27T12:43:54;94277.97;;;9.54;48.14
33151;BME280;19508;42.578;23.416;2024-01-27T12:46:20;94256.44;;;9.77;45.90
33151;BME280;19508;42.578;23.416;2024-01-27T12:52:08;94261.63;;;8.97;46.48
33151;BME280;19508;42.578;23.416;2024-01-27T12:54:34;94278.09;;;7.87;49.64
33151;BME280;19508;42.578;23.416;2024-01-27T12:56:59;94266.56;;;8.16;49.30
33151;BME280;19508;42.578;23.416;2024-01-27T12:59:26;94263.31;;;8.26;48.40